NCAR-RAP Real-Time Weather Data

Output produced by METARs form (26 May 2022  07:42 UTC)
found at http://weather.rap.ucar.edu/surface/
 
KLIT 260653Z 22005KT 10SM SCT055 16/11 A2982 RMK AO2 SLP098 T01610111
KLIT 260553Z 23008KT 10SM BKN055 18/12 A2983 RMK AO2 SLP102 T01830117 10250 20183 402780183 51012
KLIT 260453Z 26010KT 10SM BKN065 19/12 A2983 RMK AO2 SLP100 T01940117
KLIT 260353Z 26011G20KT 10SM BKN050 BKN060 20/12 A2982 RMK AO2 SLP099 T02000122
KLIT 260253Z 24009KT 10SM SCT028 BKN039 BKN046 22/16 A2980 RMK AO2 SLP090 T02170156 53021
KLIT 260229Z 24009KT 10SM SCT037 BKN046 OVC090 22/16 A2978 RMK AO2 WSHFT 0209 LTG DSNT S T02220156
KLIT 260153Z 18009KT 10SM BKN065 OVC085 23/16 A2977 RMK AO2 SLP080 T02280161
KLIT 260053Z 19007KT 10SM FEW048 SCT250 23/16 A2976 RMK AO2 LTG DSNT W AND NW SLP078 T02330156
KLIT 252353Z 19008KT 10SM FEW049 SCT250 25/16 A2973 RMK AO2 SLP069 T02500161 10278 20250 58000
KLIT 252253Z 19012KT 10SM FEW047 SCT250 26/15 A2975 RMK AO2 SLP073 T02560150
KLIT 252153Z 21013KT 10SM SCT045 SCT250 27/15 A2974 RMK AO2 SLP071 T02670150
KLIT 252053Z 26010KT 10SM SCT044 SCT250 27/16 A2974 RMK AO2 SLP069 T02670156 58002
KLIT 251953Z 23013KT 10SM SCT035 SCT250 27/16 A2974 RMK AO2 SLP070 T02720156
KLIT 251853Z 23015G21KT 10SM SCT030 SCT100 BKN250 27/17 A2974 RMK AO2 SLP072 T02720172
KLIT 251753Z 23015G18KT 10SM FEW025 SCT100 BKN250 27/18 A2974 RMK AO2 SLP072 CB MOVD NE 60000 T02670183 10267 20206 50014
KLIT 251707Z 26011G21KT 10SM SCT020 BKN100 24/18 A2975 RMK AO2 CB DSNT NE-SE MOV E T02390183
KLIT 251653Z 26016G20KT 10SM OVC020 23/19 A2975 RMK AO2 RAB44E51 SLP075 WSHFT P0000 T02330189
KLIT 251553Z 18009KT 10SM OVC018 23/20 A2974 RMK AO2 RAB1458E36 SLP069 P0000 T02330200 $
KLIT 251453Z 17014G20KT 10SM BKN017 BKN100 23/19 A2970 RMK AO2 PK WND 17027/1413 SLP057 T02330194 58014 $
KLIT 251353Z 16013G24KT 10SM OVC017 22/19 A2971 RMK AO2 SLP061 BINOVC T02220189 $
KLIT 251344Z 16015G22KT 10SM OVC017 22/19 A2971 RMK AO2 BINOVC T02220189 $
KLIT 251309Z 16011G18KT 10SM SCT007 OVC012 22/19 A2973 RMK AO2 T02170189 $
KLIT 251253Z 17011KT 10SM BKN007 OVC014 21/19 A2974 RMK AO2 SLP070 T02110189 $
KLIT 251153Z 15009KT 7SM BKN007 OVC018 21/18 A2974 RMK AO2 RAE31 SLP072 P0000 60020 70097 T02060183 10211 20194 58008 $
KLIT 251053Z 14010KT 7SM -RA BKN007 OVC012 21/18 A2975 RMK AO2 SLP074 P0004 T02060183 $
KLIT 251014Z 16008KT 4SM -RA BR BKN007 BKN014 OVC036 21/19 A2976 RMK AO2 P0002 T02060189 $
KLIT 250958Z 17007KT 4SM RA BR SCT010 BKN027 OVC045 21/19 A2976 RMK AO2 P0000 T02060189 $
KLIT 250953Z 17006KT 2 1/2SM +RA BR SCT007 BKN026 OVC032 21/18 A2976 RMK AO2 RAB29 SLP079 P0010 T02060183 $
KLIT 250949Z 17009KT 2SM +RA BR SCT007 BKN026 OVC032 21/18 A2977 RMK AO2 RAB29 P0008 $
KLIT 250853Z 13008KT 10SM SCT007 BKN026 OVC032 21/19 A2976 RMK AO2 RAE12 SLP079 P0001 60006 T02060189 55018 $
KLIT 250851Z 14008KT 10SM SCT007 BKN026 OVC032 21/19 A2976 RMK AO2 RAE12 P0001 $
KLIT 250753Z 14007KT 7SM -RA SCT007 BKN034 OVC110 20/18 A2976 RMK AO2 RAE40B52 SLP079 P0000 T02000183 $
KLIT 250750Z 13008KT 10SM SCT007 BKN034 OVC110 20/18 A2976 RMK AO2 RAE40 P0000 $
KLIT 250653Z 11009KT 7SM -RA SCT010 BKN055 BKN110 20/18 A2978 RMK AO2 SLP083 P0005 T02000183 $
KLIT 250553Z 12005KT 7SM -RA SCT010 BKN055 OVC100 20/18 A2982 RMK AO2 LTG DSNT E PRESFR SLP097 P0020 60046 T02000178 10206 20200 402440178 58009 $
KLIT 250453Z 16011KT 4SM +RA BKN055 OVC100 21/18 A2986 RMK AO2 LTG DSNT E AND SE RAB27 SLP113 P0007 T02060183 $
KLIT 250353Z 14004KT 10SM FEW055 BKN085 BKN110 21/19 A2984 RMK AO2 LTG DSNT SE RAB0256E29 SLP106 P0001 T02060189 $
KLIT 250253Z 16006KT 10SM SCT090 BKN120 BKN200 21/19 A2985 RMK AO2 RAB24E34 SLP107 P0000 60018 T02060189 53008 $
KLIT 250153Z 13004KT 9SM SCT110 OVC200 20/18 A2983 RMK AO2 RAE0055 SLP102 P0000 T02000183 $
KLIT 250053Z 03003KT 6SM -RA BR SCT110 BKN200 21/18 A2981 RMK AO2 TSE32 SLP096 CB MOVD N P0018 T02060183 $
KLIT 250032Z 04007KT 6SM -RA BR FEW023 SCT046 OVC110 21/18 A2980 RMK AO2 TSE32 CB MOVD N P0018 T02060183 $
KLIT 250020Z 09005KT 2SM TSRA BR BKN025 OVC055CB 21/18 A2982 RMK AO2 LTG DSNT NW-E OCNL LTGICCG TS OHD MOV N P0017 T02060183 $
KLIT 250005Z 20008KT 2SM TSRA BR BKN025 OVC055CB 21/18 A2984 RMK AO2 LTG DSNT ALQDS PRESRR OCNL LTGICCG TS OHD MOV N P0007 T02060183 $
KLIT 242353Z 11004KT 4SM -TSRA BR BKN015 OVC044CB 21/18 A2982 RMK AO2 LTG DSNT ALQDS SLP099 OCNL LTGIC TS OHD MOV N P0026 60031 T02060183 10244 20206 55002 $
KLIT 242340Z 00000KT 4SM -TSRA BR BKN015 OVC044CB 21/18 A2981 RMK AO2 LTG DSNT ALQDS OCNL LTGIC TS OHD MOV N P0025 T02060183 $
KLIT 242319Z COR 16009KT 1 3/4SM TSRA BR OVC025CB 21/18 A2982 RMK AO2 TWR VIS 3 LTG DSNT ALQDS OCNL LTGICCG TS OHD MOV N P0005 T02060183 $
KLIT 242253Z 13008KT 5SM -TSRA BR BKN018CB OVC070 22/20 A2981 RMK AO2 LTG DSNT E-SW SLP095 OCNL LTGICCG TS OHD MOV N P0005 T02220200
KLIT 242243Z 14009KT 5SM -TSRA BR BKN018CB OVC070 23/21 A2983 RMK AO2 LTG DSNT S AND SW P0002 T02280206
KLIT 242153Z COR 09006KT 7SM -TSRA BKN018CB BKN070 OVC110 23/21 A2982 RMK AO2 LTG DSNT S AND SW RAB44 TSE52B53 OCNL LTGICCG TS OHD MOV N SLP098 P0000 T02330206
KLIT 242053Z 06007KT 6SM BR OVC011 23/20 A2983 RMK AO2 SLP101 T02330200 58023
KLIT 242028Z 09006KT 6SM BR OVC011 23/20 A2985 RMK AO2 T02330200
KLIT 241953Z 10006KT 4SM BR FEW005 OVC007 23/19 A2986 RMK AO2 SLP110 T02280194
KLIT 241929Z 10007KT 3SM BR SCT005 OVC007 22/19 A2987 RMK AO2 T02220194
KLIT 241853Z 11007KT 2 1/2SM BR OVC005 22/19 A2989 RMK AO2 SLP120 T02170194
KLIT 241840Z 09008KT 2 1/2SM BR BKN005 OVC007 22/19 A2989 RMK AO2 T02170189
KLIT 241753Z 10009KT 5SM BR BKN005 OVC007 21/19 A2990 RMK AO2 SLP124 60000 T02110189 10211 20178 58016
KLIT 241735Z 11009KT 5SM BR BKN005 OVC007 21/19 A2990 RMK AO2 T02110189
KLIT 241653Z 09011KT 4SM BR SCT003 OVC005 21/18 A2992 RMK AO2 SLP131 T02060178
KLIT 241627Z 10008KT 4SM BR SCT003 OVC005 20/18 A2994 RMK AO2 T02000178
KLIT 241606Z COR 09011KT 3SM BR BKN003 OVC005 20/17 A2993 RMK AO2 T02000172
KLIT 241553Z 10010KT 2SM BR OVC003 19/17 A2993 RMK AO2 SLP135 T01940172
KLIT 241453Z 10009KT 1 1/2SM BR OVC003 19/17 A2994 RMK AO2 DZE52 SLP140 P0000 60000 T01890172 58011
KLIT 241353Z 09009KT 1 1/2SM -DZ BR OVC003 18/17 A2996 RMK AO2 SLP144 P0000 T01830167
KLIT 241323Z 08009KT 1 1/2SM -DZ BR OVC003 18/17 A2996 RMK AO2 P0000 T01830167
KLIT 241253Z 08008KT 2SM -DZ BR OVC003 18/16 A2997 RMK AO2 RAE08DZB44 SLP149 P0000 T01780161
KLIT 241244Z 07008KT 2 1/2SM -DZ BR OVC003 18/16 A2997 RMK AO2 RAE08DZB44 P0000 T01780161
KLIT 241208Z 08007KT 3SM BR OVC004 18/16 A2998 RMK AO2 RAE08 P0000 T01780161
KLIT 241153Z 07008KT 3SM -RA BR OVC004 18/16 A2998 RMK AO2 SLP151 P0001 60001 70001 T01780161 10194 20178 55003
KLIT 241146Z 07007KT 3SM -RA BR OVC004 18/16 A2998 RMK AO2 P0001 T01780161
KLIT 241053Z 08010KT 2SM -RA BR OVC004 18/16 A2998 RMK AO2 RAB44 SLP151 P0000 T01780161
KLIT 241044Z 07007KT 2SM -RA BR OVC004 18/16 A2998 RMK AO2 RAB44 P0000 T01780161
KLIT 241031Z 08005KT 3SM BR OVC004 18/16 A2998 RMK AO2 T01780161
KLIT 240953Z 07006KT 6SM BR OVC006 18/16 A2998 RMK AO2 SLP151 T01780161
KLIT 240857Z 08006KT 6SM BR OVC006 18/16 A2999 RMK AO2 T01780156
KLIT 240853Z 07007KT 10SM OVC014 18/16 A2999 RMK AO2 SLP155 T01780156 56015
KLIT 240753Z 07010KT 10SM OVC014 18/15 A3000 RMK AO2 SLP160 T01830150